KDAN/DAN METAR and TAF weather

Enter ICAO airport designator
Station Type Date Time Source
KDAN METAR 2019/05/20 10:11 UTC NOAA

KDAN 201011Z AUTO 21004KT 10SM BKN020 19/18 A3000 RMK AO2 T01940183


Station Type Date Time Source
KDAN Decoded METAR 2019/05/20 10:11 UTC NOAA

DANVILLE REGIONAL AIRPORT, VA, United States (KDAN) 36-34N 079-20W 175M
May 20, 2019 - 06:11 AM EDT / 2019.05.20 1011 UTC
Wind: from the SSW (210 degrees) at 5 MPH (4 KT):0
Visibility: 10 mile(s):0
Sky conditions: mostly cloudy
Temperature: 66.9 F (19.4 C)
Dew Point: 64.9 F (18.3 C)
Relative Humidity: 93%
Pressure (altimeter): 30 in. Hg (1015 hPa)
ob: KDAN 201011Z AUTO 21004KT 10SM BKN020 19/18 A3000 RMK AO2 T01940183
cycle: 10

Station Type Date Time Source
KDAN TAF 2019/05/20 06:42 UTC NOAA

TAF KDAN 200539Z 2006/2106 20005KT P6SM FEW250
FM201200 23008KT P6SM FEW014
FM201700 23011KT P6SM FEW060
FM201800 23011G19KT P6SM FEW080
FM202200 24008KT P6SM SCT090

Example: see airport list